createdAt,value
2022-11-16T00:00:08.554Z,53.19
2022-11-16T00:01:02.729Z,54.70
2022-11-16T00:02:01.839Z,55.81
2022-11-16T00:03:01.722Z,54.99
2022-11-16T00:04:01.713Z,54.98
2022-11-16T00:05:01.716Z,55.40
2022-11-16T00:06:01.707Z,56.76
2022-11-16T00:07:01.707Z,54.28
2022-11-16T00:08:01.707Z,57.91
2022-11-16T00:09:01.679Z,56.49
2022-11-16T00:10:01.674Z,53.51
2022-11-16T00:11:01.674Z,55.25
2022-11-16T00:12:01.666Z,55.92
2022-11-16T00:13:01.666Z,54.26
2022-11-16T00:14:01.649Z,55.27
2022-11-16T00:15:01.637Z,53.83
2022-11-16T00:16:01.630Z,52.90
2022-11-16T00:17:01.638Z,53.73
2022-11-16T00:18:01.641Z,54.94
2022-11-16T00:19:01.605Z,53.29
2022-11-16T00:20:01.797Z,58.56
2022-11-16T00:21:01.606Z,53.30
2022-11-16T00:22:01.593Z,55.16
2022-11-16T00:23:01.587Z,52.43
2022-11-16T00:24:01.577Z,53.68
2022-11-16T00:25:01.589Z,52.92
2022-11-16T00:26:01.573Z,54.21
2022-11-16T00:27:01.564Z,55.60
2022-11-16T00:28:01.543Z,54.57
2022-11-16T00:29:01.543Z,53.66
2022-11-16T00:30:01.547Z,53.34
2022-11-16T00:31:01.542Z,54.12
2022-11-16T00:32:01.516Z,50.03
2022-11-16T00:33:01.518Z,52.07
2022-11-16T00:34:01.529Z,53.92
2022-11-16T00:35:01.506Z,52.02
2022-11-16T00:36:01.496Z,52.42
2022-11-16T00:37:01.484Z,53.97
2022-11-16T00:38:01.480Z,51.19
2022-11-16T00:39:01.493Z,50.70
2022-11-16T00:40:01.468Z,51.86
2022-11-16T00:41:01.462Z,52.92
2022-11-16T00:42:01.457Z,51.00
2022-11-16T00:43:01.443Z,52.16
2022-11-16T00:44:01.457Z,50.27
2022-11-16T00:45:01.435Z,50.53
2022-11-16T00:46:01.430Z,52.35
2022-11-16T00:47:01.424Z,54.05
2022-11-16T00:48:01.415Z,52.98
2022-11-16T00:49:01.420Z,53.43
2022-11-16T00:50:01.406Z,51.99
2022-11-16T00:51:01.389Z,52.11
2022-11-16T00:52:01.389Z,52.66
2022-11-16T00:53:01.390Z,50.78
2022-11-16T00:54:01.401Z,51.97
2022-11-16T00:55:01.377Z,49.33
2022-11-16T00:56:01.361Z,53.45
2022-11-16T00:57:01.361Z,50.20
2022-11-16T00:58:01.347Z,49.90
2022-11-16T00:59:01.357Z,51.20
2022-11-16T01:00:01.341Z,53.69
2022-11-16T01:01:01.367Z,53.24
2022-11-16T01:02:01.345Z,50.74
2022-11-16T01:03:01.305Z,52.87
2022-11-16T01:04:01.304Z,54.31
2022-11-16T01:05:01.299Z,53.61
2022-11-16T01:06:01.289Z,51.69
2022-11-16T01:07:01.337Z,54.19
2022-11-16T01:08:01.280Z,52.28
2022-11-16T01:09:01.272Z,55.05
2022-11-16T01:10:01.265Z,53.56
2022-11-16T01:11:02.260Z,49.61
2022-11-16T01:12:01.266Z,49.89
2022-11-16T01:13:01.247Z,50.73
2022-11-16T01:14:01.240Z,50.68
2022-11-16T01:15:01.233Z,53.10
2022-11-16T01:16:01.228Z,51.22
2022-11-16T01:17:01.237Z,49.02
2022-11-16T01:18:01.224Z,52.62
2022-11-16T01:19:01.207Z,54.46
2022-11-16T01:20:01.197Z,54.46
2022-11-16T01:21:01.189Z,53.60
2022-11-16T01:22:01.200Z,53.97
2022-11-16T01:23:01.182Z,53.27
2022-11-16T01:24:01.163Z,50.51
2022-11-16T01:25:01.164Z,52.81
2022-11-16T01:26:01.170Z,52.22
2022-11-16T01:27:01.161Z,50.91
2022-11-16T01:28:01.164Z,50.98
2022-11-16T01:29:01.145Z,50.81
2022-11-16T01:30:01.136Z,51.99
2022-11-16T01:31:01.135Z,52.21
2022-11-16T01:32:01.124Z,51.54
2022-11-16T01:33:01.109Z,52.24
2022-11-16T01:34:01.109Z,52.35
2022-11-16T01:35:01.104Z,51.90
2022-11-16T01:36:01.085Z,49.58
2022-11-16T01:37:02.101Z,49.63
2022-11-16T01:38:01.085Z,49.63
2022-11-16T01:39:01.072Z,49.12
2022-11-16T01:40:01.075Z,52.64
2022-11-16T01:41:01.060Z,53.64
2022-11-16T01:42:01.061Z,51.99
2022-11-16T01:43:01.052Z,52.72
2022-11-16T01:44:01.047Z,53.15
2022-11-16T01:45:01.036Z,54.07
2022-11-16T01:46:01.028Z,52.96
2022-11-16T01:47:01.021Z,51.25
2022-11-16T01:48:01.039Z,53.14
2022-11-16T01:49:01.021Z,51.52
2022-11-16T01:50:01.006Z,51.73
2022-11-16T01:51:01.869Z,53.29
2022-11-16T01:52:00.982Z,50.44
2022-11-16T01:53:00.977Z,49.40
2022-11-16T01:54:00.976Z,48.15
2022-11-16T01:55:00.968Z,49.80
2022-11-16T01:56:00.961Z,48.62
2022-11-16T01:57:00.952Z,51.12
2022-11-16T01:58:00.940Z,52.87
2022-11-16T01:59:00.934Z,53.87
2022-11-16T02:00:00.938Z,52.57
2022-11-16T02:01:01.008Z,50.09
2022-11-16T02:02:00.915Z,50.57
2022-11-16T02:03:00.901Z,49.59
2022-11-16T02:04:00.893Z,52.01
2022-11-16T02:05:00.895Z,55.69
2022-11-16T02:06:00.894Z,53.47
2022-11-16T02:07:00.927Z,54.58
2022-11-16T02:08:00.880Z,55.99
2022-11-16T02:09:00.864Z,54.57
2022-11-16T02:10:00.852Z,52.89
2022-11-16T02:11:00.857Z,51.28
2022-11-16T02:12:00.864Z,54.05
2022-11-16T02:13:00.828Z,53.65
2022-11-16T02:14:00.831Z,56.55
2022-11-16T02:15:00.833Z,54.96
2022-11-16T02:16:00.825Z,51.89
2022-11-16T02:17:00.827Z,55.73
2022-11-16T02:18:00.805Z,55.67
2022-11-16T02:19:00.792Z,55.61
2022-11-16T02:20:00.792Z,53.17
2022-11-16T02:21:00.780Z,51.11
2022-11-16T02:22:00.777Z,54.56
2022-11-16T02:23:00.799Z,54.96
2022-11-16T02:24:00.762Z,53.97
2022-11-16T02:25:00.755Z,52.06
2022-11-16T02:26:00.753Z,53.22
2022-11-16T02:27:00.747Z,55.27
2022-11-16T02:28:00.748Z,53.10
2022-11-16T02:29:00.736Z,54.68
2022-11-16T02:30:00.726Z,55.58
2022-11-16T02:31:00.723Z,56.78
2022-11-16T02:32:00.717Z,53.11
2022-11-16T02:33:00.718Z,53.18
2022-11-16T02:34:00.699Z,52.48
2022-11-16T02:35:00.688Z,55.92
2022-11-16T02:36:00.678Z,53.43
2022-11-16T02:37:00.681Z,55.56
2022-11-16T02:38:00.679Z,55.31
2022-11-16T02:39:00.662Z,53.36
2022-11-16T02:40:00.639Z,52.28
2022-11-16T02:41:00.654Z,58.18
2022-11-16T02:42:00.648Z,53.59
2022-11-16T02:43:00.652Z,55.86
2022-11-16T02:44:00.632Z,55.63
2022-11-16T02:45:00.625Z,53.24
2022-11-16T02:46:00.608Z,51.60
2022-11-16T02:47:00.599Z,50.92
2022-11-16T02:48:00.612Z,54.20
2022-11-16T02:49:00.587Z,53.84
2022-11-16T02:50:00.602Z,55.34
2022-11-16T02:51:00.578Z,49.55
2022-11-16T02:52:00.561Z,51.63
2022-11-16T02:53:00.566Z,54.67
2022-11-16T02:54:00.556Z,53.01
2022-11-16T02:55:00.571Z,52.38
2022-11-16T02:56:00.546Z,56.71
2022-11-16T02:57:00.542Z,50.07
2022-11-16T02:58:00.535Z,52.80
2022-11-16T02:59:00.522Z,53.86
2022-11-16T03:00:00.522Z,54.88
2022-11-16T03:01:00.586Z,55.54
2022-11-16T03:02:00.502Z,55.69
2022-11-16T03:03:00.493Z,53.77
2022-11-16T03:04:00.490Z,52.47
2022-11-16T03:05:00.473Z,51.33
2022-11-16T03:06:00.511Z,53.03
2022-11-16T03:07:00.557Z,52.37
2022-11-16T03:08:00.452Z,53.70
2022-11-16T03:09:00.464Z,53.50
2022-11-16T03:10:00.454Z,52.44
2022-11-16T03:11:00.442Z,53.14
2022-11-16T03:12:00.440Z,51.82
2022-11-16T03:13:00.442Z,57.21
2022-11-16T03:14:00.421Z,55.67
2022-11-16T03:15:00.418Z,54.00
2022-11-16T03:16:00.427Z,52.87
2022-11-16T03:17:00.404Z,50.53
2022-11-16T03:18:00.401Z,56.26
2022-11-16T03:19:00.385Z,58.37
2022-11-16T03:20:00.380Z,58.05
2022-11-16T03:21:00.390Z,56.90
2022-11-16T03:22:00.370Z,53.33
2022-11-16T03:23:00.358Z,52.33
2022-11-16T03:24:00.350Z,55.71
2022-11-16T03:25:00.344Z,54.88
2022-11-16T03:26:00.331Z,53.15
2022-11-16T03:27:00.361Z,57.34
2022-11-16T03:28:00.327Z,54.60
2022-11-16T03:29:00.313Z,58.15
2022-11-16T03:30:00.305Z,53.45
2022-11-16T03:31:00.303Z,55.12
2022-11-16T03:32:00.307Z,54.39
2022-11-16T03:33:00.294Z,52.87
2022-11-16T03:34:00.285Z,57.13
2022-11-16T03:35:00.272Z,56.18
2022-11-16T03:36:00.267Z,58.65
2022-11-16T03:37:00.283Z,53.97
2022-11-16T03:38:00.250Z,56.76
2022-11-16T03:39:00.258Z,57.64
2022-11-16T03:40:00.243Z,55.01
2022-11-16T03:41:00.228Z,54.39
2022-11-16T03:42:01.248Z,57.05
2022-11-16T03:43:00.219Z,56.39
2022-11-16T03:44:00.234Z,53.86
2022-11-16T03:45:00.209Z,57.30
2022-11-16T03:46:00.204Z,57.97
2022-11-16T03:47:00.186Z,57.26
2022-11-16T03:48:00.170Z,58.05
2022-11-16T03:49:00.193Z,56.72
2022-11-16T03:50:00.174Z,57.66
2022-11-16T03:51:00.153Z,56.40
2022-11-16T03:52:00.154Z,58.51
2022-11-16T03:53:00.130Z,60.75
2022-11-16T03:54:00.133Z,57.89
2022-11-16T03:55:00.138Z,56.35
2022-11-16T03:56:00.126Z,56.84
2022-11-16T03:57:00.133Z,54.90
2022-11-16T03:58:00.102Z,54.51
2022-11-16T03:59:00.091Z,56.71
2022-11-16T04:00:00.105Z,57.01
2022-11-16T04:01:00.168Z,55.22
2022-11-16T04:02:00.067Z,53.86
2022-11-16T04:03:00.085Z,56.55
2022-11-16T04:04:00.097Z,58.98
2022-11-16T04:05:00.066Z,54.74
2022-11-16T04:06:00.043Z,56.15
2022-11-16T04:07:00.087Z,56.80
2022-11-16T04:08:00.029Z,57.77
2022-11-16T04:09:00.035Z,55.65
2022-11-16T04:10:00.014Z,56.35
2022-11-16T04:11:01.018Z,57.58
2022-11-16T04:11:59.989Z,58.84
2022-11-16T04:12:59.990Z,58.83
2022-11-16T04:14:00.001Z,57.55
2022-11-16T04:15:00.075Z,58.61
2022-11-16T04:15:59.982Z,59.09
2022-11-16T04:16:59.967Z,58.37
2022-11-16T04:17:59.962Z,58.74
2022-11-16T04:18:59.970Z,59.05
2022-11-16T04:19:59.954Z,59.52
2022-11-16T04:20:59.929Z,58.16
2022-11-16T04:21:59.930Z,58.05
2022-11-16T04:22:59.919Z,57.90
2022-11-16T04:23:59.909Z,58.40
2022-11-16T04:24:59.931Z,59.13
2022-11-16T04:25:59.901Z,60.10
2022-11-16T04:26:59.877Z,58.61
2022-11-16T04:27:59.888Z,59.02
2022-11-16T04:28:59.874Z,59.45
2022-11-16T04:29:59.865Z,58.75
2022-11-16T04:30:59.882Z,59.87
2022-11-16T04:31:59.850Z,60.98
2022-11-16T04:32:59.843Z,58.13
2022-11-16T04:33:59.843Z,59.87
2022-11-16T04:34:59.838Z,61.22
2022-11-16T04:35:59.839Z,59.03
2022-11-16T04:36:59.822Z,60.57
2022-11-16T04:37:59.813Z,59.14
2022-11-16T04:38:59.799Z,58.84
2022-11-16T04:39:59.802Z,59.12
2022-11-16T04:40:59.789Z,59.23
2022-11-16T04:41:59.792Z,58.25
2022-11-16T04:42:59.773Z,59.75
2022-11-16T04:43:59.765Z,60.45
2022-11-16T04:44:59.766Z,59.19
2022-11-16T04:45:59.758Z,59.99
2022-11-16T04:46:59.767Z,59.86
2022-11-16T04:47:59.742Z,58.69
2022-11-16T04:48:59.739Z,58.88
2022-11-16T04:49:59.736Z,59.75
2022-11-16T04:50:59.722Z,59.56
2022-11-16T04:51:59.714Z,60.12
2022-11-16T04:52:59.718Z,60.18
2022-11-16T04:53:59.703Z,58.41
2022-11-16T04:54:59.682Z,60.07
2022-11-16T04:56:01.055Z,59.13
2022-11-16T04:57:00.670Z,58.46
2022-11-16T04:57:59.679Z,60.86
2022-11-16T04:58:59.651Z,59.63
2022-11-16T04:59:59.651Z,60.31
2022-11-16T05:00:59.734Z,58.74
2022-11-16T05:01:59.652Z,59.36
2022-11-16T05:03:01.618Z,58.49
2022-11-16T05:04:00.694Z,59.40
2022-11-16T05:04:59.628Z,58.85
2022-11-16T05:05:59.612Z,58.24
2022-11-16T05:06:59.626Z,59.77
2022-11-16T05:07:59.615Z,59.84
2022-11-16T05:08:59.588Z,58.89
2022-11-16T05:09:59.587Z,59.75
2022-11-16T05:10:59.604Z,59.21
2022-11-16T05:11:59.574Z,59.77
2022-11-16T05:12:59.572Z,59.80
2022-11-16T05:13:59.568Z,58.79
2022-11-16T05:14:59.550Z,59.98
2022-11-16T05:15:59.560Z,59.11
2022-11-16T05:16:59.535Z,59.81
2022-11-16T05:17:59.537Z,61.11
2022-11-16T05:18:59.528Z,59.41
2022-11-16T05:19:59.518Z,60.47
2022-11-16T05:20:59.508Z,59.90
2022-11-16T05:21:59.514Z,60.35
2022-11-16T05:22:59.501Z,59.01
2022-11-16T05:23:59.492Z,60.04
2022-11-16T05:24:59.490Z,60.20
2022-11-16T05:25:59.482Z,59.74
2022-11-16T05:26:59.490Z,58.15
2022-11-16T05:27:59.463Z,59.25
2022-11-16T05:28:59.454Z,60.13
2022-11-16T05:29:59.443Z,59.27
2022-11-16T05:30:59.441Z,59.66
2022-11-16T05:31:59.435Z,59.44
2022-11-16T05:32:59.464Z,59.81
2022-11-16T05:33:59.427Z,60.60
2022-11-16T05:34:59.418Z,59.78
2022-11-16T05:35:59.406Z,60.20
2022-11-16T05:36:59.411Z,61.50
2022-11-16T05:37:59.415Z,60.37
2022-11-16T05:38:59.392Z,61.27
2022-11-16T05:39:59.387Z,60.49
2022-11-16T05:40:59.376Z,60.85
2022-11-16T05:41:59.359Z,60.82
2022-11-16T05:42:59.359Z,60.34
2022-11-16T05:43:59.371Z,61.41
2022-11-16T05:44:59.371Z,60.75
2022-11-16T05:45:59.345Z,62.31
2022-11-16T05:46:59.338Z,60.98
2022-11-16T05:47:59.327Z,61.08
2022-11-16T05:48:59.319Z,61.25
2022-11-16T05:49:59.331Z,61.41
2022-11-16T05:50:59.304Z,60.76
2022-11-16T05:51:59.307Z,61.86
2022-11-16T05:52:59.292Z,60.41
2022-11-16T05:53:59.284Z,60.81
2022-11-16T05:54:59.279Z,60.73
2022-11-16T05:55:59.339Z,61.21
2022-11-16T05:56:59.292Z,60.70
2022-11-16T05:57:59.256Z,60.97
2022-11-16T05:58:59.247Z,60.22
2022-11-16T06:00:00.260Z,61.11
2022-11-16T06:00:59.241Z,60.72
2022-11-16T06:01:59.606Z,60.15
2022-11-16T06:02:59.267Z,60.39
2022-11-16T06:03:59.211Z,61.02
2022-11-16T06:05:00.261Z,59.86
2022-11-16T06:05:59.199Z,60.18
2022-11-16T06:06:59.272Z,60.16
2022-11-16T06:07:59.199Z,60.26
2022-11-16T06:08:59.184Z,60.84
2022-11-16T06:09:59.171Z,60.62
2022-11-16T06:10:59.163Z,60.61
2022-11-16T06:11:59.163Z,59.81
2022-11-16T06:12:59.187Z,59.67
2022-11-16T06:13:59.815Z,59.66
2022-11-16T06:14:59.141Z,59.95
2022-11-16T06:15:59.466Z,59.39
2022-11-16T06:16:59.119Z,59.26
2022-11-16T06:17:59.141Z,60.36
2022-11-16T06:18:59.109Z,60.18
2022-11-16T06:19:59.106Z,59.33
2022-11-16T06:20:59.091Z,58.94
2022-11-16T06:21:59.083Z,60.46
2022-11-16T06:22:59.083Z,60.44
2022-11-16T06:23:59.090Z,60.68
2022-11-16T06:24:59.071Z,61.09
2022-11-16T06:25:59.055Z,60.72
2022-11-16T06:26:59.060Z,60.92
2022-11-16T06:27:59.034Z,60.55
2022-11-16T06:29:00.056Z,61.29
2022-11-16T06:29:59.033Z,60.83
2022-11-16T06:30:59.039Z,60.74
2022-11-16T06:31:59.302Z,60.66
2022-11-16T06:32:59.011Z,60.45
2022-11-16T06:33:58.999Z,60.81
2022-11-16T06:34:58.999Z,61.00
2022-11-16T06:35:59.003Z,62.32
2022-11-16T06:36:58.981Z,61.14
2022-11-16T06:37:58.971Z,61.18
2022-11-16T06:38:58.975Z,60.68
2022-11-16T06:39:58.956Z,61.75
2022-11-16T06:40:58.976Z,61.25
2022-11-16T06:41:58.946Z,60.27
2022-11-16T06:42:58.940Z,61.44
2022-11-16T06:43:58.931Z,60.57
2022-11-16T06:44:58.923Z,60.64
2022-11-16T06:45:58.927Z,59.05
2022-11-16T06:46:59.001Z,60.28
2022-11-16T06:47:58.914Z,62.04
2022-11-16T06:48:58.906Z,60.99
2022-11-16T06:49:58.887Z,60.79
2022-11-16T06:50:58.895Z,61.33
2022-11-16T06:51:58.902Z,60.63
2022-11-16T06:52:58.877Z,61.16
2022-11-16T06:53:58.887Z,60.81
2022-11-16T06:54:58.859Z,60.48
2022-11-16T06:55:58.847Z,60.06
2022-11-16T06:56:58.869Z,60.78
2022-11-16T06:57:58.835Z,60.59
2022-11-16T06:58:58.828Z,61.58
2022-11-16T06:59:58.827Z,61.10
2022-11-16T07:00:58.818Z,59.65
2022-11-16T07:01:58.860Z,59.94
2022-11-16T07:02:58.801Z,59.40
2022-11-16T07:03:58.981Z,59.68
2022-11-16T07:05:03.302Z,60.00
2022-11-16T07:06:00.780Z,58.89
2022-11-16T07:06:58.812Z,59.87
2022-11-16T07:07:58.751Z,59.55
2022-11-16T07:08:58.824Z,59.37
2022-11-16T07:09:58.751Z,58.60
2022-11-16T07:11:03.921Z,58.57
2022-11-16T07:12:00.730Z,59.17
2022-11-16T07:12:58.737Z,59.14
2022-11-16T07:13:58.812Z,58.88
2022-11-16T07:14:58.711Z,58.07
2022-11-16T07:15:58.695Z,58.47
2022-11-16T07:17:02.879Z,59.04
2022-11-16T07:18:00.691Z,60.46
2022-11-16T07:18:58.691Z,60.20
2022-11-16T07:19:58.675Z,59.85
2022-11-16T07:20:58.667Z,60.02
2022-11-16T07:21:58.659Z,59.32
2022-11-16T07:22:58.638Z,59.26
2022-11-16T07:23:58.823Z,57.98
2022-11-16T07:24:58.643Z,58.77
2022-11-16T07:25:58.626Z,60.89
2022-11-16T07:26:58.624Z,66.14
2022-11-16T07:27:58.619Z,62.21
2022-11-16T07:28:58.676Z,60.33
2022-11-16T07:29:58.618Z,59.24
2022-11-16T07:30:58.598Z,59.57
2022-11-16T07:31:58.586Z,58.52
2022-11-16T07:32:58.579Z,59.55
2022-11-16T07:33:58.573Z,59.48
2022-11-16T07:34:59.642Z,58.66
2022-11-16T07:35:59.825Z,58.25
2022-11-16T07:36:58.562Z,58.86
2022-11-16T07:37:58.543Z,58.47
2022-11-16T07:38:58.625Z,58.67
2022-11-16T07:39:58.534Z,58.30
2022-11-16T07:40:58.542Z,59.14
2022-11-16T07:41:58.519Z,58.65
2022-11-16T07:42:58.515Z,61.88
2022-11-16T07:43:58.499Z,72.78
2022-11-16T07:44:58.499Z,72.55
2022-11-16T07:46:20.009Z,62.24
2022-11-16T07:46:59.474Z,66.14
2022-11-16T07:47:58.476Z,70.10
2022-11-16T07:48:58.466Z,59.53
2022-11-16T07:49:58.470Z,59.04
2022-11-16T07:50:58.452Z,58.07
2022-11-16T07:51:58.470Z,57.69
2022-11-16T07:52:58.433Z,57.47
2022-11-16T07:53:58.446Z,58.97
2022-11-16T07:54:58.426Z,58.34
2022-11-16T07:55:58.423Z,58.04
2022-11-16T07:56:58.422Z,57.21
2022-11-16T07:57:58.415Z,58.87
2022-11-16T07:58:58.466Z,59.82
2022-11-16T07:59:58.433Z,57.14
2022-11-16T08:00:58.391Z,55.40
2022-11-16T08:01:58.467Z,56.75
2022-11-16T08:02:58.393Z,56.09
2022-11-16T08:03:58.364Z,57.06
2022-11-16T08:04:58.357Z,57.38
2022-11-16T08:05:58.349Z,57.66
2022-11-16T08:06:58.406Z,57.21
2022-11-16T08:07:58.452Z,57.65
2022-11-16T08:08:59.135Z,57.89
2022-11-16T08:09:59.398Z,55.64
2022-11-16T08:10:58.316Z,56.84
2022-11-16T08:11:58.293Z,57.22
2022-11-16T08:12:58.305Z,57.06
2022-11-16T08:13:58.322Z,58.23
2022-11-16T08:14:58.290Z,56.18
2022-11-16T08:15:58.281Z,57.98
2022-11-16T08:16:58.278Z,56.64
2022-11-16T08:17:58.262Z,57.33
2022-11-16T08:18:58.281Z,55.88
2022-11-16T08:19:58.310Z,57.11
2022-11-16T08:20:58.237Z,57.53
2022-11-16T08:21:58.246Z,57.41
2022-11-16T08:22:58.237Z,56.68
2022-11-16T08:23:59.091Z,58.12
2022-11-16T08:24:59.226Z,58.10
2022-11-16T08:25:58.214Z,58.31
2022-11-16T08:26:58.202Z,57.87
2022-11-16T08:27:58.205Z,57.45
2022-11-16T08:28:58.205Z,57.69
2022-11-16T08:29:58.192Z,57.71
2022-11-16T08:30:58.181Z,56.12
2022-11-16T08:31:58.177Z,57.63
2022-11-16T08:32:58.160Z,57.61
2022-11-16T08:33:58.162Z,58.24
2022-11-16T08:34:58.168Z,57.26
2022-11-16T08:35:58.146Z,56.50
2022-11-16T08:36:58.142Z,56.41
2022-11-16T08:37:58.166Z,58.92
2022-11-16T08:38:58.163Z,57.06
2022-11-16T08:39:58.119Z,56.23
2022-11-16T08:40:58.131Z,55.46
2022-11-16T08:41:58.101Z,56.67
2022-11-16T08:42:58.093Z,57.09
2022-11-16T08:43:58.097Z,56.93
2022-11-16T08:44:58.102Z,56.78
2022-11-16T08:45:58.124Z,55.26
2022-11-16T08:46:58.069Z,56.28
2022-11-16T08:48:03.519Z,55.58
2022-11-16T08:48:58.061Z,57.36
2022-11-16T08:49:58.071Z,57.95
2022-11-16T08:51:19.907Z,58.42
2022-11-16T08:52:00.032Z,58.23
2022-11-16T08:52:58.028Z,60.17
2022-11-16T08:53:58.029Z,58.12
2022-11-16T08:54:58.017Z,57.67
2022-11-16T08:55:58.060Z,56.64
2022-11-16T08:56:58.012Z,57.09
2022-11-16T08:57:58.005Z,57.79
2022-11-16T08:58:59.233Z,58.96
2022-11-16T08:59:58.980Z,57.08
2022-11-16T09:00:57.989Z,57.53
2022-11-16T09:01:58.007Z,57.84
2022-11-16T09:02:57.965Z,57.57
2022-11-16T09:03:57.954Z,57.52
2022-11-16T09:04:57.948Z,57.86
2022-11-16T09:05:57.960Z,56.23
2022-11-16T09:06:58.006Z,57.60
2022-11-16T09:07:57.925Z,57.35
2022-11-16T09:08:57.928Z,58.52
2022-11-16T09:09:57.907Z,57.25
2022-11-16T09:10:57.897Z,57.32
2022-11-16T09:11:57.919Z,55.28
2022-11-16T09:12:57.892Z,56.78
2022-11-16T09:13:57.888Z,57.37
2022-11-16T09:14:57.884Z,57.95
2022-11-16T09:15:57.868Z,58.84
2022-11-16T09:16:57.864Z,56.52
2022-11-16T09:17:57.880Z,57.46
2022-11-16T09:18:57.851Z,57.09
2022-11-16T09:19:57.859Z,57.24
2022-11-16T09:20:57.839Z,56.92
2022-11-16T09:21:57.821Z,58.11
2022-11-16T09:22:57.847Z,58.36
2022-11-16T09:23:57.804Z,57.42
2022-11-16T09:24:57.811Z,56.81
2022-11-16T09:25:57.803Z,59.25
2022-11-16T09:26:57.788Z,57.55
2022-11-16T09:27:57.879Z,57.80
2022-11-16T09:28:57.792Z,56.94
2022-11-16T09:29:57.776Z,55.71
2022-11-16T09:30:57.761Z,55.96
2022-11-16T09:31:57.756Z,56.24
2022-11-16T09:32:57.762Z,57.70
2022-11-16T09:33:57.755Z,56.96
2022-11-16T09:34:57.739Z,55.08
2022-11-16T09:35:57.729Z,55.41
2022-11-16T09:36:57.725Z,57.36
2022-11-16T09:37:57.704Z,55.56
2022-11-16T09:39:59.701Z,56.47
2022-11-16T09:40:57.689Z,57.07
2022-11-16T09:41:57.690Z,56.70
2022-11-16T09:42:57.680Z,56.89
2022-11-16T09:43:57.696Z,56.85
2022-11-16T09:44:58.669Z,57.20
2022-11-16T09:45:57.665Z,57.13
2022-11-16T09:46:57.663Z,56.23
2022-11-16T09:47:57.656Z,56.73
2022-11-16T09:48:57.675Z,57.73
2022-11-16T09:50:02.983Z,57.27
2022-11-16T09:50:59.634Z,58.04
2022-11-16T09:51:57.621Z,58.22
2022-11-16T09:52:57.629Z,58.49
2022-11-16T09:53:57.624Z,57.29
2022-11-16T09:54:57.628Z,58.26
2022-11-16T09:55:57.592Z,57.10
2022-11-16T09:56:57.589Z,59.02
2022-11-16T09:57:57.583Z,58.72
2022-11-16T09:58:57.574Z,59.13
2022-11-16T09:59:57.662Z,58.55
2022-11-16T10:00:57.717Z,57.20
2022-11-16T10:01:57.563Z,57.07
2022-11-16T10:02:57.574Z,58.58
2022-11-16T10:03:57.541Z,58.25
2022-11-16T10:04:58.650Z,57.35
2022-11-16T10:05:58.531Z,58.09
2022-11-16T10:06:57.630Z,59.68
2022-11-16T10:07:57.526Z,60.06
2022-11-16T10:08:57.511Z,58.85
2022-11-16T10:09:57.493Z,59.97
2022-11-16T10:10:57.499Z,58.99
2022-11-16T10:11:57.556Z,58.65
2022-11-16T10:12:57.486Z,57.67
2022-11-16T10:14:03.697Z,59.28
2022-11-16T10:14:59.468Z,58.58
2022-11-16T10:15:57.460Z,58.17
2022-11-16T10:16:57.461Z,60.23
2022-11-16T10:17:57.462Z,59.06
2022-11-16T10:18:57.462Z,59.26
2022-11-16T10:19:57.460Z,60.89
2022-11-16T10:20:57.432Z,61.94
2022-11-16T10:21:57.420Z,61.07
2022-11-16T10:22:57.418Z,57.72
2022-11-16T10:23:57.420Z,59.17
2022-11-16T10:24:57.420Z,58.60
2022-11-16T10:25:57.399Z,59.75
2022-11-16T10:26:57.392Z,61.61
2022-11-16T10:27:57.384Z,60.97
2022-11-16T10:28:57.438Z,59.11
2022-11-16T10:29:57.372Z,58.29
2022-11-16T10:30:57.460Z,58.84
2022-11-16T10:31:57.375Z,58.68
2022-11-16T10:32:57.360Z,59.90
2022-11-16T10:33:57.339Z,59.53
2022-11-16T10:34:57.335Z,60.36
2022-11-16T10:35:57.350Z,60.78
2022-11-16T10:36:57.332Z,59.39
2022-11-16T10:37:57.315Z,59.36
2022-11-16T10:38:57.305Z,58.59
2022-11-16T10:39:57.296Z,60.04
2022-11-16T10:40:57.324Z,60.97
2022-11-16T10:41:57.322Z,59.82
2022-11-16T10:42:57.294Z,61.17
2022-11-16T10:43:57.271Z,59.92
2022-11-16T10:44:57.281Z,59.48
2022-11-16T10:45:57.265Z,59.94
2022-11-16T10:46:57.361Z,60.12
2022-11-16T10:47:57.255Z,60.77
2022-11-16T10:48:57.243Z,59.42
2022-11-16T10:49:57.248Z,59.36
2022-11-16T10:50:57.232Z,58.85
2022-11-16T10:51:57.248Z,58.12
2022-11-16T10:52:57.224Z,59.39
2022-11-16T10:53:57.220Z,59.31
2022-11-16T10:54:57.209Z,57.04
2022-11-16T10:55:57.196Z,58.32
2022-11-16T10:56:57.207Z,67.90
2022-11-16T10:57:57.188Z,75.33
2022-11-16T10:58:57.175Z,61.03
2022-11-16T10:59:57.196Z,58.99
2022-11-16T11:00:57.285Z,59.17
2022-11-16T11:01:57.161Z,60.44
2022-11-16T11:02:57.263Z,59.13
2022-11-16T11:03:57.149Z,60.84
2022-11-16T11:04:57.165Z,59.43
2022-11-16T11:05:57.142Z,63.64
2022-11-16T11:06:57.255Z,61.56
2022-11-16T11:07:59.669Z,59.47
2022-11-16T11:08:58.119Z,59.23
2022-11-16T11:09:57.137Z,61.70
2022-11-16T11:10:57.103Z,58.96
2022-11-16T11:11:57.104Z,59.79
2022-11-16T11:12:57.092Z,59.08
2022-11-16T11:13:57.084Z,59.09
2022-11-16T11:14:57.071Z,59.13
2022-11-16T11:15:57.107Z,58.12
2022-11-16T11:16:57.063Z,58.06
2022-11-16T11:17:57.056Z,59.03
2022-11-16T11:18:57.149Z,58.57
2022-11-16T11:19:57.041Z,59.21
2022-11-16T11:20:57.070Z,58.96
2022-11-16T11:21:57.400Z,59.77
2022-11-16T11:22:57.019Z,60.54
2022-11-16T11:24:10.565Z,59.77
2022-11-16T11:24:59.008Z,58.46
2022-11-16T11:25:57.012Z,59.60
2022-11-16T11:26:57.000Z,58.91
2022-11-16T11:27:57.003Z,59.27
2022-11-16T11:28:56.983Z,59.08
2022-11-16T11:29:56.998Z,59.38
2022-11-16T11:30:56.981Z,59.27
2022-11-16T11:31:56.957Z,59.52
2022-11-16T11:32:56.979Z,58.75
2022-11-16T11:33:56.969Z,60.22
2022-11-16T11:34:57.025Z,60.92
2022-11-16T11:35:56.932Z,59.34
2022-11-16T11:36:56.927Z,59.41
2022-11-16T11:37:56.917Z,58.37
2022-11-16T11:38:57.052Z,60.77
2022-11-16T11:39:56.907Z,59.15
2022-11-16T11:40:56.896Z,60.54
2022-11-16T11:41:56.907Z,60.75
2022-11-16T11:42:56.884Z,60.12
2022-11-16T11:43:56.884Z,58.24
2022-11-16T11:44:56.855Z,57.13
2022-11-16T11:45:56.863Z,58.65
2022-11-16T11:47:42.476Z,58.39
2022-11-16T11:47:59.798Z,60.34
2022-11-16T11:48:57.842Z,57.88
2022-11-16T11:49:56.856Z,59.63
2022-11-16T11:50:56.815Z,59.11
2022-11-16T11:51:56.820Z,58.26
2022-11-16T11:52:56.830Z,56.75
2022-11-16T11:53:56.799Z,58.16
2022-11-16T11:54:56.805Z,57.78
2022-11-16T11:55:56.785Z,58.12
2022-11-16T11:56:56.779Z,57.56
2022-11-16T11:57:56.805Z,58.54
2022-11-16T11:58:56.762Z,57.56
2022-11-16T11:59:56.806Z,57.46
2022-11-16T12:00:56.755Z,58.36
2022-11-16T12:01:56.761Z,59.36
2022-11-16T12:02:56.764Z,60.03
2022-11-16T12:03:56.726Z,58.88
2022-11-16T12:04:56.721Z,58.78
2022-11-16T12:05:56.722Z,57.81
2022-11-16T12:06:56.773Z,58.97
2022-11-16T12:07:56.709Z,59.05
2022-11-16T12:08:56.693Z,59.18
2022-11-16T12:09:57.280Z,57.64
2022-11-16T12:10:56.685Z,58.60
2022-11-16T12:11:56.687Z,58.97
2022-11-16T12:12:56.674Z,56.95
2022-11-16T12:13:56.662Z,55.70
2022-11-16T12:14:56.654Z,57.72
2022-11-16T12:15:56.642Z,59.21
2022-11-16T12:16:56.644Z,59.16
2022-11-16T12:17:56.660Z,58.42
2022-11-16T12:18:56.624Z,59.45
2022-11-16T12:19:56.610Z,58.07
2022-11-16T12:20:56.593Z,60.63
2022-11-16T12:21:56.597Z,60.04
2022-11-16T12:23:01.122Z,60.01
2022-11-16T12:23:58.580Z,59.85
2022-11-16T12:24:56.582Z,60.65
2022-11-16T12:25:56.564Z,60.56
2022-11-16T12:26:56.571Z,60.78
2022-11-16T12:27:56.565Z,59.99
2022-11-16T12:28:56.568Z,60.75
2022-11-16T12:29:56.548Z,59.88
2022-11-16T12:30:56.532Z,60.73
2022-11-16T12:31:56.529Z,62.64
2022-11-16T12:32:56.528Z,59.44
2022-11-16T12:33:56.525Z,58.55
2022-11-16T12:34:56.508Z,59.57
2022-11-16T12:35:56.496Z,60.02
2022-11-16T12:36:57.496Z,59.63
2022-11-16T12:37:56.484Z,60.46
2022-11-16T12:38:56.495Z,59.30
2022-11-16T12:39:56.477Z,58.83
2022-11-16T12:40:56.460Z,61.50
2022-11-16T12:41:56.460Z,60.37
2022-11-16T12:42:56.457Z,60.54
2022-11-16T12:43:56.444Z,61.08
2022-11-16T12:44:56.461Z,59.27
2022-11-16T12:45:56.436Z,58.67
2022-11-16T12:46:56.415Z,60.57
2022-11-16T12:47:56.414Z,59.71
2022-11-16T12:48:56.468Z,58.34
2022-11-16T12:49:56.410Z,58.17
2022-11-16T12:50:56.394Z,60.45
2022-11-16T12:51:56.404Z,59.59
2022-11-16T12:52:56.381Z,60.81